Time;durP1;ratioP1;P1;durP2;ratioP2;P2;SDS_P1;SDS_P2;PMS_P1;PMS_P2;Temp;Humidity;BMP_temperature;BMP_pressure;BME280_temperature;BME280_humidity;BME280_pressure;Samples;Min_cycle;Max_cycle;Signal;HPM_P1;HPM_P2
2023/11/26 00:00:41;;;;;;;1.60;1.40;;;4.90;98.20;;;;;;5030756;28;20495;-80
2023/11/26 00:03:08;;;;;;;1.60;1.30;;;4.90;98.20;;;;;;5049023;28;20979;-81
2023/11/26 00:05:35;;;;;;;1.60;1.30;;;5.00;98.20;;;;;;5021335;28;20483;-81
2023/11/26 00:08:01;;;;;;;1.60;1.30;;;5.00;98.20;;;;;;5044507;28;20542;-82
2023/11/26 00:10:28;;;;;;;1.63;1.30;;;4.90;98.20;;;;;;5028469;28;20494;-80
2023/11/26 00:12:55;;;;;;;1.60;1.30;;;4.90;98.20;;;;;;5049044;28;20843;-81
2023/11/26 00:15:22;;;;;;;1.70;1.43;;;5.00;98.20;;;;;;5019829;28;20529;-81
2023/11/26 00:17:50;;;;;;;1.70;1.30;;;4.90;98.20;;;;;;5047001;28;20891;-81
2023/11/26 00:20:17;;;;;;;1.60;1.30;;;5.00;98.20;;;;;;5026190;28;20467;-81
2023/11/26 00:22:45;;;;;;;1.60;1.30;;;5.00;98.20;;;;;;5040743;28;20503;-81
2023/11/26 00:25:11;;;;;;;1.70;1.47;;;5.00;98.20;;;;;;5029891;28;20529;-82
2023/11/26 00:27:38;;;;;;;1.63;1.30;;;5.00;98.20;;;;;;5044233;28;20481;-81
2023/11/26 00:30:06;;;;;;;1.60;1.30;;;5.00;98.20;;;;;;5033398;28;20466;-81
2023/11/26 00:32:33;;;;;;;1.67;1.40;;;5.00;98.20;;;;;;5045181;28;20556;-81
2023/11/26 00:35:01;;;;;;;1.60;1.30;;;5.00;98.20;;;;;;5031199;28;21070;-80
2023/11/26 00:37:28;;;;;;;1.63;1.30;;;5.00;98.20;;;;;;5039220;28;20473;-80
2023/11/26 00:39:55;;;;;;;1.60;1.30;;;5.00;98.20;;;;;;5032646;28;21189;-80
2023/11/26 00:42:22;;;;;;;1.63;1.40;;;5.00;98.20;;;;;;5038842;28;20496;-81
2023/11/26 00:44:49;;;;;;;1.60;1.30;;;5.00;98.20;;;;;;5032730;28;20482;-81
2023/11/26 00:47:16;;;;;;;1.63;1.30;;;5.00;98.20;;;;;;5034772;28;20502;-82
2023/11/26 00:49:42;;;;;;;1.60;1.30;;;5.00;98.20;;;;;;5038124;28;20463;-82
2023/11/26 00:52:11;;;;;;;1.63;1.30;;;5.00;98.20;;;;;;5043078;28;20480;-80
2023/11/26 00:54:38;;;;;;;1.70;1.40;;;5.00;98.20;;;;;;5036089;28;20498;-80
2023/11/26 00:57:05;;;;;;;1.60;1.40;;;5.00;98.20;;;;;;5038857;28;20536;-80
2023/11/26 00:59:32;;;;;;;1.63;1.40;;;5.00;98.20;;;;;;5036103;28;20466;-80
2023/11/26 01:01:59;;;;;;;1.60;1.37;;;5.00;98.20;;;;;;5035888;28;20504;-82
2023/11/26 01:04:25;;;;;;;1.70;1.60;;;4.90;98.20;;;;;;5035797;28;20483;-81
2023/11/26 01:06:53;;;;;;;1.60;1.30;;;4.90;98.20;;;;;;5035864;28;20564;-81
2023/11/26 01:09:22;;;;;;;1.60;1.40;;;4.90;98.20;;;;;;5043759;28;20495;-82
2023/11/26 01:11:49;;;;;;;1.60;1.30;;;4.90;98.20;;;;;;5028425;28;20473;-82
2023/11/26 01:14:16;;;;;;;1.67;1.40;;;4.90;98.20;;;;;;5048802;28;20577;-79
2023/11/26 01:16:42;;;;;;;1.60;1.23;;;5.00;98.20;;;;;;5031446;28;21658;-81
2023/11/26 01:19:09;;;;;;;1.60;1.30;;;5.00;98.20;;;;;;5044635;28;20478;-79
2023/11/26 01:21:37;;;;;;;1.60;1.30;;;5.00;98.20;;;;;;5028638;28;20473;-80
2023/11/26 01:24:05;;;;;;;1.63;1.40;;;5.00;98.20;;;;;;5046807;28;20505;-81
2023/11/26 01:26:33;;;;;;;1.60;1.30;;;5.00;98.20;;;;;;5024483;28;21004;-80
2023/11/26 01:29:01;;;;;;;1.63;1.30;;;5.00;98.20;;;;;;5045530;28;20493;-80
2023/11/26 01:31:28;;;;;;;1.70;1.40;;;5.00;98.20;;;;;;5027585;28;20512;-79
2023/11/26 01:33:55;;;;;;;1.60;1.30;;;5.00;98.20;;;;;;5045048;28;20483;-80
2023/11/26 01:36:21;;;;;;;1.60;1.30;;;5.00;98.20;;;;;;5025939;28;21012;-79
2023/11/26 01:38:47;;;;;;;1.63;1.30;;;4.90;98.20;;;;;;5043394;28;20471;-81
2023/11/26 01:41:14;;;;;;;1.60;1.30;;;4.90;98.20;;;;;;5026099;28;20469;-81
2023/11/26 01:43:42;;;;;;;1.63;1.40;;;4.90;98.20;;;;;;5048905;28;20224;-80
2023/11/26 01:46:12;;;;;;;1.60;1.30;;;4.80;98.20;;;;;;5022459;28;20513;-81
2023/11/26 01:48:40;;;;;;;1.60;1.40;;;4.80;98.20;;;;;;5042654;28;20561;-80
2023/11/26 01:51:09;;;;;;;1.67;1.30;;;4.80;98.20;;;;;;5023401;28;20579;-79
2023/11/26 01:53:37;;;;;;;1.63;1.40;;;4.70;98.20;;;;;;5051474;28;20689;-81
2023/11/26 01:56:05;;;;;;;1.60;1.30;;;4.70;98.20;;;;;;5022458;28;20465;-79
2023/11/26 01:58:32;;;;;;;1.67;1.30;;;4.70;98.20;;;;;;5051665;28;20978;-81
2023/11/26 02:01:00;;;;;;;1.63;1.30;;;4.60;98.20;;;;;;5023520;28;20976;-78
2023/11/26 02:03:27;;;;;;;1.70;1.50;;;4.60;98.20;;;;;;5048666;28;20703;-81
2023/11/26 02:05:54;;;;;;;1.60;1.30;;;4.50;98.20;;;;;;5025519;28;20491;-79
2023/11/26 02:08:21;;;;;;;1.60;1.40;;;4.50;98.20;;;;;;5051032;28;20469;-80
2023/11/26 02:10:48;;;;;;;1.60;1.40;;;4.50;98.20;;;;;;5019754;28;20463;-80
2023/11/26 02:13:15;;;;;;;1.70;1.40;;;4.50;98.20;;;;;;5053013;28;20495;-80
2023/11/26 02:15:42;;;;;;;1.67;1.40;;;4.50;98.20;;;;;;5026884;28;20463;-80
2023/11/26 02:18:10;;;;;;;1.60;1.40;;;4.50;98.20;;;;;;5048758;28;20493;-81
2023/11/26 02:20:37;;;;;;;1.70;1.40;;;4.50;98.20;;;;;;5029792;28;20463;-80
2023/11/26 02:23:04;;;;;;;1.60;1.30;;;4.50;98.20;;;;;;5051264;28;20500;-80
2023/11/26 02:25:32;;;;;;;1.60;1.40;;;4.50;98.20;;;;;;5034575;28;20459;-81
2023/11/26 02:27:59;;;;;;;1.60;1.30;;;4.50;98.20;;;;;;5045512;28;20492;-81
2023/11/26 02:30:26;;;;;;;1.67;1.40;;;4.50;98.20;;;;;;5026717;28;20477;-81
2023/11/26 02:32:52;;;;;;;1.60;1.30;;;4.50;98.20;;;;;;5048622;28;20476;-80
2023/11/26 02:35:19;;;;;;;1.67;1.37;;;4.60;98.20;;;;;;5031409;28;21554;-81
2023/11/26 02:37:47;;;;;;;1.60;1.30;;;4.60;98.20;;;;;;5046095;28;20482;-81
2023/11/26 02:40:15;;;;;;;1.60;1.40;;;4.60;98.20;;;;;;5030538;28;20521;-81
2023/11/26 02:42:43;;;;;;;1.70;1.40;;;4.60;98.20;;;;;;5046461;28;20481;-79
2023/11/26 02:45:10;;;;;;;1.60;1.30;;;4.60;98.20;;;;;;5026186;28;20837;-79
2023/11/26 02:47:37;;;;;;;1.60;1.30;;;4.50;98.20;;;;;;5044807;28;20496;-79
2023/11/26 02:50:05;;;;;;;1.60;1.43;;;4.50;98.20;;;;;;5029778;28;20467;-79
2023/11/26 02:52:31;;;;;;;1.70;1.50;;;4.50;98.20;;;;;;5033747;28;20477;-79
2023/11/26 02:54:58;;;;;;;1.63;1.40;;;4.50;98.20;;;;;;5030042;28;20506;-79
2023/11/26 02:57:25;;;;;;;1.70;1.40;;;4.50;98.20;;;;;;5018533;28;20501;-80
2023/11/26 02:59:53;;;;;;;1.60;1.40;;;4.50;98.20;;;;;;5023995;28;20513;-79
2023/11/26 03:02:20;;;;;;;1.60;1.40;;;4.50;98.20;;;;;;5036300;28;20496;-79
2023/11/26 03:04:52;;;;;;;1.67;1.40;;;4.50;98.20;;;;;;5031498;28;20483;-78
2023/11/26 03:07:21;;;;;;;1.60;1.40;;;4.50;98.20;;;;;;5039833;28;20490;-79
2023/11/26 03:15:11;;;;;;;1.60;1.40;;;4.50;98.20;;;;;;5022278;28;20844;-79
2023/11/26 03:17:38;;;;;;;1.60;1.40;;;4.40;98.20;;;;;;5043124;28;20482;-78
2023/11/26 03:20:06;;;;;;;1.67;1.40;;;4.40;98.20;;;;;;5028897;28;20463;-79
2023/11/26 03:22:33;;;;;;;1.60;1.40;;;4.40;98.20;;;;;;5031125;28;20486;-80
2023/11/26 03:25:00;;;;;;;1.67;1.40;;;4.30;98.20;;;;;;5027166;28;20578;-79
2023/11/26 03:27:27;;;;;;;1.60;1.40;;;4.30;98.20;;;;;;5038831;28;20485;-79
2023/11/26 03:29:54;;;;;;;1.70;1.40;;;4.30;98.20;;;;;;5034745;28;20494;-79
2023/11/26 03:32:23;;;;;;;1.67;1.40;;;4.20;98.20;;;;;;5040197;28;20477;-79
2023/11/26 03:34:49;;;;;;;1.60;1.40;;;4.10;98.20;;;;;;5029601;28;20571;-79
2023/11/26 03:37:17;;;;;;;1.63;1.40;;;4.10;98.20;;;;;;5036762;28;20539;-81
2023/11/26 03:39:45;;;;;;;1.70;1.50;;;4.00;98.20;;;;;;5036386;28;20487;-79
2023/11/26 03:42:14;;;;;;;1.67;1.40;;;4.00;98.20;;;;;;5039359;28;20469;-79
2023/11/26 03:44:40;;;;;;;1.70;1.50;;;3.90;98.20;;;;;;5038510;28;20582;-79
2023/11/26 03:47:08;;;;;;;1.63;1.40;;;3.90;98.20;;;;;;5029975;28;20601;-79
2023/11/26 03:49:37;;;;;;;1.63;1.40;;;3.90;98.20;;;;;;5037326;28;20875;-79
2023/11/26 03:52:04;;;;;;;1.60;1.40;;;3.80;98.20;;;;;;5039742;28;20512;-80
2023/11/26 03:54:31;;;;;;;1.70;1.50;;;3.80;98.20;;;;;;5043544;28;20485;-80
2023/11/26 03:56:58;;;;;;;1.70;1.40;;;3.70;98.20;;;;;;5034352;28;20481;-79
2023/11/26 03:59:25;;;;;;;1.63;1.40;;;3.70;98.20;;;;;;5040375;28;21040;-79
2023/11/26 04:01:52;;;;;;;1.63;1.47;;;3.70;98.20;;;;;;5030174;28;20474;-79
2023/11/26 04:04:19;;;;;;;1.60;1.40;;;3.70;98.20;;;;;;5044242;28;20486;-79
2023/11/26 04:06:48;;;;;;;1.60;1.40;;;3.60;98.20;;;;;;5040289;28;21098;-79
2023/11/26 04:09:15;;;;;;;1.63;1.40;;;3.60;98.20;;;;;;5049329;28;20467;-80
2023/11/26 04:11:44;;;;;;;1.70;1.50;;;3.60;98.20;;;;;;5039607;28;20475;-80
2023/11/26 04:14:11;;;;;;;1.63;1.40;;;3.50;98.20;;;;;;5050948;28;20490;-79
2023/11/26 04:16:44;;;;;;;1.67;1.50;;;3.50;98.20;;;;;;5040439;28;21220;-80
2023/11/26 04:19:11;;;;;;;1.70;1.40;;;3.50;98.20;;;;;;5053005;28;20515;-79
2023/11/26 04:21:38;;;;;;;1.70;1.60;;;3.50;98.20;;;;;;5032682;28;20478;-79
2023/11/26 04:24:07;;;;;;;1.67;1.50;;;3.50;98.20;;;;;;5045871;28;20546;-79
2023/11/26 04:26:34;;;;;;;1.67;1.40;;;3.50;98.20;;;;;;5036920;28;20864;-80
2023/11/26 04:29:01;;;;;;;1.60;1.40;;;3.50;98.20;;;;;;5050188;28;20459;-79
2023/11/26 04:31:28;;;;;;;1.63;1.47;;;3.50;98.20;;;;;;5036267;28;20469;-79
2023/11/26 04:33:55;;;;;;;1.60;1.40;;;3.50;98.20;;;;;;5054378;28;20479;-80
2023/11/26 04:36:22;;;;;;;1.63;1.40;;;3.50;98.20;;;;;;5032349;28;20548;-82
2023/11/26 04:38:49;;;;;;;1.60;1.50;;;3.50;98.20;;;;;;5054237;28;20474;-80
2023/11/26 04:41:17;;;;;;;1.63;1.50;;;3.60;98.20;;;;;;5030362;28;20484;-81
2023/11/26 04:43:44;;;;;;;1.60;1.40;;;3.60;98.20;;;;;;5056998;28;20819;-81
2023/11/26 04:46:11;;;;;;;1.70;1.40;;;3.60;98.20;;;;;;5030442;28;21498;-82
2023/11/26 04:48:38;;;;;;;1.70;1.50;;;3.60;98.20;;;;;;5052986;28;20509;-80
2023/11/26 04:51:06;;;;;;;1.67;1.40;;;3.70;98.20;;;;;;5030189;28;21156;-82
2023/11/26 04:53:33;;;;;;;1.70;1.60;;;3.70;98.20;;;;;;5061091;28;20959;-80
2023/11/26 04:56:00;;;;;;;1.60;1.40;;;3.70;98.20;;;;;;5024156;28;20521;-80
2023/11/26 04:58:28;;;;;;;1.60;1.40;;;3.70;98.20;;;;;;5047004;28;20850;-79
2023/11/26 05:00:54;;;;;;;1.67;1.40;;;3.80;98.20;;;;;;5024878;28;20839;-80
2023/11/26 05:03:22;;;;;;;1.60;1.40;;;3.80;98.20;;;;;;5056010;28;20487;-81
2023/11/26 05:05:49;;;;;;;1.60;1.40;;;3.70;98.20;;;;;;5024979;28;20471;-79
2023/11/26 05:08:16;;;;;;;1.67;1.47;;;3.80;98.20;;;;;;5054913;28;20489;-81
2023/11/26 05:10:43;;;;;;;1.70;1.50;;;3.80;98.20;;;;;;5034341;28;20467;-79
2023/11/26 05:13:11;;;;;;;1.67;1.50;;;3.80;98.20;;;;;;5054725;28;20505;-81
2023/11/26 05:15:39;;;;;;;1.60;1.40;;;3.80;98.20;;;;;;5033910;28;20463;-81
2023/11/26 05:18:06;;;;;;;1.60;1.40;;;3.80;98.20;;;;;;5056616;28;20477;-80
2023/11/26 05:20:32;;;;;;;1.63;1.40;;;3.80;98.20;;;;;;5033590;28;20822;-79
2023/11/26 05:22:59;;;;;;;1.67;1.43;;;3.80;98.20;;;;;;5055074;28;20960;-79
2023/11/26 05:25:26;;;;;;;1.63;1.40;;;3.90;98.20;;;;;;5030725;28;20491;-79
2023/11/26 05:27:53;;;;;;;1.60;1.40;;;3.90;98.20;;;;;;5047068;28;20489;-79
2023/11/26 05:30:20;;;;;;;1.60;1.40;;;3.90;98.20;;;;;;5035591;28;20474;-79
2023/11/26 05:32:48;;;;;;;1.60;1.40;;;3.90;98.20;;;;;;5051916;28;20481;-80
2023/11/26 05:35:15;;;;;;;1.60;1.40;;;3.90;98.20;;;;;;5032575;28;20463;-81
2023/11/26 05:37:41;;;;;;;1.60;1.40;;;3.90;98.20;;;;;;5039536;28;20486;-80
2023/11/26 05:40:11;;;;;;;1.60;1.30;;;3.90;98.20;;;;;;5040816;28;20459;-80
2023/11/26 05:42:38;;;;;;;1.67;1.50;;;3.90;98.20;;;;;;5040925;28;20480;-80
2023/11/26 05:45:06;;;;;;;1.70;1.40;;;4.00;98.20;;;;;;5039290;28;20459;-80
2023/11/26 05:47:32;;;;;;;1.70;1.50;;;4.00;98.20;;;;;;5053459;28;20568;-79
2023/11/26 05:50:01;;;;;;;1.70;1.50;;;4.00;98.20;;;;;;5026797;28;20467;-78
2023/11/26 05:52:27;;;;;;;1.60;1.40;;;4.00;98.20;;;;;;5037182;28;20487;-80
2023/11/26 05:54:53;;;;;;;1.70;1.40;;;4.10;98.20;;;;;;5041856;28;20486;-82
2023/11/26 05:57:20;;;;;;;1.70;1.50;;;4.10;98.20;;;;;;5037919;28;20483;-81
2023/11/26 05:59:48;;;;;;;1.70;1.50;;;4.10;98.20;;;;;;5039404;28;20236;-79
2023/11/26 06:02:15;;;;;;;1.63;1.40;;;4.10;98.20;;;;;;5039636;28;20489;-80
2023/11/26 06:04:42;;;;;;;1.60;1.30;;;4.10;98.20;;;;;;5044755;28;20493;-81
2023/11/26 06:07:10;;;;;;;1.60;1.30;;;4.20;98.20;;;;;;5040960;28;20482;-81
2023/11/26 06:09:37;;;;;;;1.70;1.40;;;4.20;98.20;;;;;;5038848;28;20483;-80
2023/11/26 06:12:04;;;;;;;1.67;1.50;;;4.20;98.20;;;;;;5044048;28;20477;-81
2023/11/26 06:14:31;;;;;;;1.70;1.40;;;4.20;98.20;;;;;;5047776;28;20479;-80
2023/11/26 06:16:58;;;;;;;1.60;1.30;;;4.20;98.20;;;;;;5035769;28;20485;-80
2023/11/26 06:19:24;;;;;;;1.67;1.40;;;4.20;98.20;;;;;;5051875;28;20907;-79
2023/11/26 06:21:51;;;;;;;1.60;1.30;;;4.20;98.20;;;;;;5038588;28;22438;-81
2023/11/26 06:24:19;;;;;;;1.70;1.40;;;4.20;98.20;;;;;;5048540;28;20570;-82
2023/11/26 06:26:46;;;;;;;1.60;1.37;;;4.20;98.20;;;;;;5040263;28;20485;-81
2023/11/26 06:29:13;;;;;;;1.60;1.40;;;4.20;98.20;;;;;;5038629;28;20505;-82
2023/11/26 06:31:40;;;;;;;1.63;1.40;;;4.20;98.20;;;;;;5030831;28;20501;-81
2023/11/26 06:34:08;;;;;;;1.67;1.40;;;4.20;98.20;;;;;;5046486;28;20491;-79
2023/11/26 06:36:34;;;;;;;1.60;1.30;;;4.20;98.20;;;;;;5045671;28;20481;-79
2023/11/26 06:39:01;;;;;;;1.63;1.30;;;4.20;98.20;;;;;;5046384;28;20458;-78
2023/11/26 06:41:31;;;;;;;1.60;1.40;;;4.20;98.20;;;;;;5039175;28;20477;-80
2023/11/26 06:43:59;;;;;;;1.70;1.50;;;4.20;98.20;;;;;;5068948;22;20490;-81
2023/11/26 06:46:27;;;;;;;1.70;1.50;;;4.20;98.20;;;;;;5060372;28;20484;-83
2023/11/26 06:48:55;;;;;;;1.63;1.30;;;4.20;98.20;;;;;;5075746;28;20488;-83
2023/11/26 06:51:22;;;;;;;1.70;1.40;;;4.20;98.20;;;;;;5060711;28;20476;-82
2023/11/26 06:53:50;;;;;;;1.60;1.30;;;4.30;98.20;;;;;;5072836;28;20487;-82
2023/11/26 06:56:18;;;;;;;1.60;1.30;;;4.30;98.20;;;;;;5039390;28;20532;-82
2023/11/26 06:58:46;;;;;;;1.70;1.40;;;4.30;98.20;;;;;;5063944;28;20486;-82
2023/11/26 07:01:14;;;;;;;1.63;1.33;;;4.30;98.20;;;;;;5044133;28;20490;-83
2023/11/26 07:03:42;;;;;;;1.60;1.20;;;4.30;98.20;;;;;;5072547;28;20512;-82
2023/11/26 07:06:10;;;;;;;1.70;1.40;;;4.30;98.20;;;;;;5040826;28;20535;-79
2023/11/26 07:08:38;;;;;;;1.60;1.30;;;4.20;98.20;;;;;;5043396;28;21005;-79
2023/11/26 07:11:05;;;;;;;1.67;1.40;;;4.20;98.20;;;;;;5036864;28;21658;-79
2023/11/26 07:13:32;;;;;;;1.60;1.40;;;4.20;98.20;;;;;;5052490;28;20617;-79
2023/11/26 07:16:00;;;;;;;1.60;1.40;;;4.20;98.20;;;;;;5036983;28;20796;-76
2023/11/26 07:18:27;;;;;;;1.70;1.47;;;4.20;98.20;;;;;;5047890;28;20561;-79
2023/11/26 07:20:54;;;;;;;1.60;1.30;;;4.20;98.20;;;;;;5035277;28;20932;-77
2023/11/26 07:23:21;;;;;;;1.67;1.40;;;4.20;98.20;;;;;;5051469;28;20492;-77
2023/11/26 07:25:48;;;;;;;1.70;1.40;;;4.30;98.20;;;;;;5032665;28;20473;-78
2023/11/26 07:28:14;;;;;;;1.63;1.40;;;4.30;98.20;;;;;;5050246;28;20492;-79
2023/11/26 07:30:42;;;;;;;1.63;1.40;;;4.30;98.20;;;;;;5042287;28;20464;-78
2023/11/26 07:33:12;;;;;;;1.60;1.30;;;4.30;98.20;;;;;;5054834;28;20532;-78
2023/11/26 07:35:38;;;;;;;1.70;1.50;;;4.30;98.20;;;;;;5048604;28;20967;-77
2023/11/26 07:38:08;;;;;;;1.63;1.40;;;4.40;98.20;;;;;;5048149;28;20473;-78
2023/11/26 07:40:35;;;;;;;1.63;1.33;;;4.40;98.20;;;;;;5043729;28;20455;-77
2023/11/26 07:43:04;;;;;;;1.60;1.40;;;4.40;98.20;;;;;;5054531;28;21015;-79
2023/11/26 07:45:31;;;;;;;1.63;1.30;;;4.40;98.20;;;;;;5041704;28;20467;-77
2023/11/26 07:47:59;;;;;;;1.60;1.40;;;4.40;98.20;;;;;;5054068;28;20469;-79
2023/11/26 07:50:27;;;;;;;1.60;1.30;;;4.40;98.20;;;;;;5050130;28;20489;-79
2023/11/26 07:52:54;;;;;;;1.60;1.30;;;4.40;98.20;;;;;;5046453;28;20565;-78
2023/11/26 07:55:21;;;;;;;1.63;1.40;;;4.40;98.20;;;;;;5046873;28;20968;-79
2023/11/26 07:57:48;;;;;;;1.70;1.40;;;4.50;98.20;;;;;;5035971;28;20474;-80
2023/11/26 08:00:17;;;;;;;1.70;1.40;;;4.50;98.20;;;;;;5044440;28;20466;-79
2023/11/26 08:02:44;;;;;;;1.63;1.40;;;4.60;98.20;;;;;;5037238;28;20534;-79
2023/11/26 08:05:18;;;;;;;1.70;1.40;;;4.60;98.20;;;;;;5045655;28;21009;-78
2023/11/26 08:07:46;;;;;;;1.60;1.30;;;4.70;98.20;;;;;;5034696;28;20488;-79
2023/11/26 08:10:18;;;;;;;1.70;1.40;;;4.70;98.20;;;;;;5047307;28;20462;-79
2023/11/26 08:12:46;;;;;;;1.60;1.30;;;4.80;98.20;;;;;;5044640;28;20493;-79
2023/11/26 08:15:16;;;;;;;1.63;1.30;;;4.80;98.20;;;;;;5046394;28;20900;-77
2023/11/26 08:17:43;;;;;;;1.70;1.40;;;4.90;98.20;;;;;;5042608;28;20488;-77
2023/11/26 08:20:11;;;;;;;1.67;1.40;;;4.90;98.20;;;;;;5052382;28;20553;-77
2023/11/26 08:22:40;;;;;;;1.70;1.40;;;5.00;98.20;;;;;;5053641;28;20517;-78
2023/11/26 08:25:12;;;;;;;1.60;1.30;;;5.00;98.20;;;;;;5064618;28;20457;-78
2023/11/26 08:27:39;;;;;;;1.60;1.30;;;5.10;98.20;;;;;;5072403;28;20512;-80
2023/11/26 08:30:12;;;;;;;1.60;1.30;;;5.10;98.20;;;;;;5062047;28;20463;-78
2023/11/26 08:32:44;;;;;;;1.60;1.30;;;5.20;98.20;;;;;;5046932;28;20553;-78
2023/11/26 08:35:13;;;;;;;1.60;1.30;;;5.20;98.20;;;;;;5069178;28;20439;-81
2023/11/26 08:37:43;;;;;;;1.63;1.33;;;5.30;98.20;;;;;;5058612;28;20961;-79
2023/11/26 08:40:13;;;;;;;1.70;1.40;;;5.40;98.20;;;;;;5062047;28;20757;-77
2023/11/26 08:42:41;;;;;;;1.60;1.30;;;5.40;98.20;;;;;;5044279;28;20478;-78
2023/11/26 08:45:09;;;;;;;1.60;1.30;;;5.50;98.20;;;;;;5056714;28;20506;-78
2023/11/26 08:47:36;;;;;;;1.63;1.30;;;5.60;98.20;;;;;;5044256;28;20486;-77
2023/11/26 08:50:04;;;;;;;2.60;2.40;;;5.60;98.20;;;;;;5056664;28;21007;-77
2023/11/26 08:52:33;;;;;;;1.60;1.30;;;5.70;98.20;;;;;;5059176;28;20523;-77
2023/11/26 08:55:00;;;;;;;1.70;1.40;;;5.80;98.20;;;;;;5051088;28;20796;-78
2023/11/26 08:57:28;;;;;;;1.70;1.30;;;5.80;98.20;;;;;;5056004;28;20489;-77
2023/11/26 08:59:55;;;;;;;1.70;1.40;;;5.90;98.20;;;;;;5054632;28;20524;-77
2023/11/26 09:02:22;;;;;;;1.60;1.20;;;5.90;98.20;;;;;;5040547;28;20489;-77
2023/11/26 09:04:49;;;;;;;1.63;1.40;;;6.00;98.20;;;;;;5052336;28;20512;-77
2023/11/26 09:07:16;;;;;;;1.60;1.30;;;6.10;98.20;;;;;;5040540;28;20483;-78
2023/11/26 09:09:43;;;;;;;1.60;1.30;;;6.10;98.20;;;;;;5048274;28;20487;-77
2023/11/26 09:12:10;;;;;;;1.60;1.20;;;6.20;98.20;;;;;;5034419;28;20478;-77
2023/11/26 09:14:38;;;;;;;1.60;1.20;;;6.20;98.20;;;;;;5043484;28;20640;-77
2023/11/26 09:17:05;;;;;;;1.60;1.30;;;6.30;98.20;;;;;;5032396;28;20478;-77
2023/11/26 09:19:32;;;;;;;1.60;1.20;;;6.30;98.20;;;;;;5046367;28;20497;-77
2023/11/26 09:22:02;;;;;;;1.67;1.30;;;6.40;98.20;;;;;;5044944;28;20484;-77
2023/11/26 09:24:30;;;;;;;1.60;1.20;;;6.40;98.20;;;;;;5050230;28;20478;-77
2023/11/26 09:26:56;;;;;;;1.60;1.20;;;6.50;98.20;;;;;;5044571;28;20876;-77
2023/11/26 09:29:23;;;;;;;1.70;1.30;;;6.60;98.20;;;;;;5052255;28;20508;-76
2023/11/26 09:31:51;;;;;;;1.60;1.23;;;6.60;98.20;;;;;;5028326;28;20795;-77
2023/11/26 09:34:19;;;;;;;1.70;1.33;;;6.70;98.20;;;;;;5044851;28;20852;-77
2023/11/26 09:36:46;;;;;;;1.60;1.20;;;6.80;98.20;;;;;;5036529;28;20561;-76
2023/11/26 09:39:13;;;;;;;1.60;1.30;;;6.80;98.20;;;;;;5049387;28;20454;-77
2023/11/26 09:41:40;;;;;;;1.60;1.30;;;6.90;98.20;;;;;;5031842;28;20510;-76
2023/11/26 09:44:07;;;;;;;1.63;1.30;;;6.90;98.20;;;;;;5043310;28;21068;-76
2023/11/26 09:46:34;;;;;;;1.63;1.30;;;7.00;98.20;;;;;;5032842;28;20489;-76
2023/11/26 09:49:03;;;;;;;1.60;1.37;;;7.00;98.20;;;;;;5039695;28;20479;-76
2023/11/26 09:51:32;;;;;;;1.60;1.20;;;7.00;98.20;;;;;;5035038;28;20615;-76
2023/11/26 09:53:59;;;;;;;1.63;1.30;;;7.00;98.20;;;;;;5048829;28;20620;-76
2023/11/26 09:56:26;;;;;;;1.60;1.20;;;7.10;98.20;;;;;;5033365;28;20486;-76
2023/11/26 09:58:53;;;;;;;1.60;1.30;;;7.10;98.20;;;;;;5048873;28;20457;-76
2023/11/26 10:01:20;;;;;;;1.60;1.20;;;7.10;98.20;;;;;;5033580;28;20484;-76
2023/11/26 10:03:57;;;;;;;1.60;1.20;;;7.10;98.20;;;;;;5048557;28;20593;-77
2023/11/26 10:06:26;;;;;;;1.70;1.30;;;7.10;98.20;;;;;;5036855;28;20485;-76
2023/11/26 10:08:54;;;;;;;1.63;1.27;;;7.20;98.20;;;;;;5051389;28;20478;-76
2023/11/26 10:11:22;;;;;;;1.60;1.30;;;7.20;98.20;;;;;;5036740;28;20488;-76
2023/11/26 10:13:49;;;;;;;1.63;1.30;;;7.20;98.20;;;;;;5052494;28;20490;-77
2023/11/26 10:16:29;;;;;;;1.60;1.30;;;7.20;98.20;;;;;;5037804;28;20486;-77
2023/11/26 10:18:55;;;;;;;1.63;1.30;;;7.20;98.20;;;;;;5045399;28;20457;-77
2023/11/26 10:21:22;;;;;;;1.60;1.20;;;7.20;98.20;;;;;;5033670;28;20482;-77
2023/11/26 10:23:50;;;;;;;1.63;1.20;;;7.30;98.20;;;;;;5046503;28;20487;-77
2023/11/26 10:26:22;;;;;;;1.60;1.20;;;7.30;98.20;;;;;;5043975;28;20949;-77
2023/11/26 10:29:08;;;;;;;1.70;1.40;;;7.30;98.20;;;;;;5057527;28;20496;-77
2023/11/26 10:31:36;;;;;;;1.63;1.20;;;7.30;98.20;;;;;;5027718;28;20486;-77
2023/11/26 10:34:10;;;;;;;1.70;1.30;;;7.40;98.20;;;;;;5042824;28;20577;-77
2023/11/26 10:36:37;;;;;;;2.63;2.43;;;7.40;98.20;;;;;;5035749;28;20481;-77
2023/11/26 10:39:09;;;;;;;1.60;1.20;;;7.50;98.20;;;;;;5051714;28;20957;-77
2023/11/26 10:41:36;;;;;;;1.60;1.20;;;7.50;98.20;;;;;;5029363;28;21673;-77
2023/11/26 10:44:05;;;;;;;1.60;1.20;;;7.50;98.20;;;;;;5045293;28;20494;-76
2023/11/26 10:46:35;;;;;;;1.60;1.17;;;7.60;98.20;;;;;;5033674;28;20481;-77
2023/11/26 10:49:08;;;;;;;1.60;1.20;;;7.60;98.20;;;;;;5046675;28;20706;-76
2023/11/26 10:51:38;;;;;;;1.60;1.20;;;7.70;98.20;;;;;;5028512;28;20502;-77
2023/11/26 10:54:14;;;;;;;1.60;1.20;;;7.70;98.20;;;;;;5041233;28;20513;-77
2023/11/26 10:56:44;;;;;;;1.90;1.60;;;7.80;98.20;;;;;;5030402;28;20561;-77
2023/11/26 10:59:17;;;;;;;1.63;1.20;;;7.80;98.20;;;;;;5042705;28;20456;-77
2023/11/26 11:01:45;;;;;;;1.67;1.20;;;7.80;98.20;;;;;;5036134;28;20469;-77
2023/11/26 11:04:14;;;;;;;1.90;1.70;;;7.90;98.20;;;;;;5049845;28;20536;-77
2023/11/26 11:06:44;;;;;;;1.60;1.20;;;7.90;98.20;;;;;;5029832;28;21117;-77
2023/11/26 11:09:35;;;;;;;1.60;1.20;;;7.90;98.20;;;;;;5046158;28;20494;-77
2023/11/26 11:12:08;;;;;;;2.63;2.43;;;7.90;98.20;;;;;;5028243;28;20486;-77
2023/11/26 11:14:35;;;;;;;1.60;1.10;;;8.00;98.20;;;;;;5042347;28;21008;-77
2023/11/26 11:17:01;;;;;;;1.67;1.20;;;8.00;98.20;;;;;;5032037;28;20792;-77
2023/11/26 11:19:48;;;;;;;1.70;1.30;;;7.90;98.20;;;;;;5046362;28;20453;-77
2023/11/26 11:22:15;;;;;;;1.63;1.30;;;7.90;98.20;;;;;;5037541;28;20847;-78
2023/11/26 11:24:43;;;;;;;1.70;1.30;;;7.90;98.20;;;;;;5044575;28;20470;-78
2023/11/26 11:27:11;;;;;;;1.60;1.30;;;7.90;98.20;;;;;;5043199;28;20485;-79
2023/11/26 11:29:37;;;;;;;1.60;1.20;;;7.90;98.20;;;;;;5052090;28;20938;-78
2023/11/26 11:32:05;;;;;;;1.60;1.20;;;7.90;98.20;;;;;;5042248;28;20480;-79
2023/11/26 11:34:33;;;;;;;1.60;1.13;;;7.90;98.20;;;;;;5049180;28;20562;-80
2023/11/26 11:37:02;;;;;;;1.63;1.17;;;7.90;98.20;;;;;;5048292;28;20513;-76
2023/11/26 11:39:46;;;;;;;1.67;1.20;;;7.90;98.20;;;;;;5050010;28;20453;-77
2023/11/26 11:42:21;;;;;;;1.63;1.20;;;7.90;98.20;;;;;;5037937;28;20486;-77
2023/11/26 11:44:49;;;;;;;1.60;1.20;;;7.90;98.20;;;;;;5048710;28;20490;-78
2023/11/26 11:47:40;;;;;;;1.63;1.30;;;7.90;98.20;;;;;;5039017;28;20487;-77
2023/11/26 11:50:08;;;;;;;1.60;1.20;;;7.90;98.20;;;;;;5052417;28;20482;-77
2023/11/26 11:52:36;;;;;;;1.60;1.10;;;8.00;98.20;;;;;;5036847;28;20991;-77
2023/11/26 11:55:33;;;;;;;1.60;1.20;;;8.00;98.20;;;;;;5058622;28;20484;-77
2023/11/26 11:58:10;;;;;;;1.60;1.10;;;8.00;98.20;;;;;;5038463;28;21080;-77
2023/11/26 12:00:38;;;;;;;1.60;1.10;;;8.10;98.20;;;;;;5044347;28;20462;-76
2023/11/26 12:03:06;;;;;;;1.60;1.20;;;8.10;98.20;;;;;;5034000;28;20572;-77
2023/11/26 12:05:33;;;;;;;1.60;1.20;;;8.20;98.20;;;;;;5045252;28;20486;-77
2023/11/26 12:08:00;;;;;;;1.60;1.20;;;8.20;98.20;;;;;;5047922;28;20512;-76
2023/11/26 12:10:30;;;;;;;1.60;1.20;;;8.20;98.20;;;;;;5042117;28;20489;-77
2023/11/26 12:13:01;;;;;;;1.60;1.20;;;8.30;98.20;;;;;;5039549;28;20489;-76
2023/11/26 12:15:28;;;;;;;1.60;1.20;;;8.30;98.20;;;;;;5045538;28;20483;-77
2023/11/26 12:17:56;;;;;;;1.60;1.13;;;8.30;98.20;;;;;;5028560;28;21156;-77
2023/11/26 12:20:23;;;;;;;1.63;1.20;;;8.30;98.20;;;;;;5047309;28;20461;-76
2023/11/26 12:22:51;;;;;;;1.60;1.20;;;8.30;98.20;;;;;;5034825;28;20561;-76
2023/11/26 12:25:21;;;;;;;1.60;1.13;;;8.40;98.20;;;;;;5048686;28;20466;-77
2023/11/26 12:28:01;;;;;;;1.60;1.20;;;8.40;98.20;;;;;;5028631;28;20490;-75
2023/11/26 12:30:28;;;;;;;1.60;1.20;;;8.40;98.20;;;;;;5042951;28;20490;-75
2023/11/26 12:32:55;;;;;;;1.60;1.20;;;8.40;98.20;;;;;;5050904;28;20584;-76
2023/11/26 12:35:25;;;;;;;1.60;1.20;;;8.40;98.20;;;;;;5045200;28;20453;-76
2023/11/26 12:37:52;;;;;;;1.60;1.20;;;8.40;98.20;;;;;;5049848;28;20483;-78
2023/11/26 12:40:20;;;;;;;1.60;1.10;;;8.40;98.20;;;;;;5042670;28;20464;-76
2023/11/26 12:42:48;;;;;;;1.60;1.20;;;8.40;98.20;;;;;;5046654;28;20572;-76
2023/11/26 12:45:18;;;;;;;1.70;1.40;;;8.40;98.20;;;;;;5046667;28;20526;-77
2023/11/26 12:47:53;;;;;;;1.70;1.30;;;8.40;98.20;;;;;;5047490;28;20504;-76
2023/11/26 12:50:20;;;;;;;1.63;1.20;;;8.40;98.20;;;;;;5042897;28;20520;-76
2023/11/26 12:52:48;;;;;;;1.70;1.30;;;8.40;98.20;;;;;;5049899;28;20493;-76
2023/11/26 12:55:16;;;;;;;1.60;1.20;;;8.40;98.20;;;;;;5049168;28;20471;-76
2023/11/26 12:57:44;;;;;;;1.63;1.20;;;8.40;98.20;;;;;;5025154;28;20516;-77
2023/11/26 13:00:13;;;;;;;1.63;1.20;;;8.40;98.20;;;;;;5044819;28;21194;-77
2023/11/26 13:02:42;;;;;;;1.60;1.20;;;8.40;98.20;;;;;;5044114;28;20485;-77
2023/11/26 13:05:28;;;;;;;1.60;1.20;;;8.40;98.20;;;;;;5046797;28;20462;-77
2023/11/26 13:07:56;;;;;;;1.60;1.20;;;8.40;98.20;;;;;;5047647;28;20579;-77